Time;durP1;ratioP1;P1;durP2;ratioP2;P2;SDS_P1;SDS_P2;PMS_P1;PMS_P2;Temp;Humidity;BMP_temperature;BMP_pressure;BME280_temperature;BME280_humidity;BME280_pressure;Samples;Min_cycle;Max_cycle;Signal;HPM_P1;HPM_P2
2023/03/02 00:01:47;;;;;;;0.00;0.00;;;3.60;87.80;;;;;;4976872;28;20050;-71
2023/03/02 00:04:21;;;;;;;0.10;0.10;;;3.60;87.90;;;;;;4973094;28;20050;-71
2023/03/02 00:06:48;;;;;;;0.10;0.10;;;3.60;88.10;;;;;;4976543;28;20060;-71
2023/03/02 00:09:14;;;;;;;0.00;0.00;;;3.60;88.10;;;;;;4979536;28;20129;-71
2023/03/02 00:11:40;;;;;;;0.10;0.10;;;3.60;88.20;;;;;;4973191;28;20034;-71
2023/03/02 00:14:06;;;;;;;0.10;0.10;;;3.70;88.00;;;;;;4978077;28;20047;-71
2023/03/02 00:16:32;;;;;;;0.00;0.00;;;3.60;87.90;;;;;;4971600;28;20058;-71
2023/03/02 00:18:58;;;;;;;0.00;0.00;;;3.50;88.00;;;;;;4979547;28;20061;-71
2023/03/02 00:21:24;;;;;;;0.10;0.10;;;3.50;88.10;;;;;;4997615;28;20457;-71
2023/03/02 00:23:51;;;;;;;0.73;0.73;;;3.50;88.00;;;;;;4971341;28;20457;-71
2023/03/02 00:26:17;;;;;;;0.00;0.00;;;3.50;88.00;;;;;;4973364;28;20804;-71
2023/03/02 00:28:42;;;;;;;0.35;0.35;;;3.50;88.10;;;;;;4972789;28;20050;-71
2023/03/02 00:31:08;;;;;;;0.00;0.00;;;3.50;88.10;;;;;;4989242;28;20057;-71
2023/03/02 00:33:34;;;;;;;0.00;0.00;;;3.60;88.10;;;;;;4993610;28;20054;-71
2023/03/02 00:36:00;;;;;;;0.00;0.00;;;3.60;88.10;;;;;;4989148;28;20082;-71
2023/03/02 00:38:26;;;;;;;0.00;0.00;;;3.60;88.10;;;;;;4973630;28;20053;-72
2023/03/02 00:40:52;;;;;;;1.45;1.17;;;3.60;88.10;;;;;;4990293;28;20047;-71
2023/03/02 00:43:18;;;;;;;0.10;0.10;;;3.60;88.00;;;;;;4990329;28;20050;-72
2023/03/02 00:45:44;;;;;;;0.13;0.13;;;3.60;87.90;;;;;;4990441;28;20054;-71
2023/03/02 00:48:10;;;;;;;0.10;0.10;;;3.60;88.10;;;;;;4976243;28;20134;-71
2023/03/02 00:50:39;;;;;;;0.10;0.10;;;3.60;88.00;;;;;;4987840;28;20418;-71
2023/03/02 00:53:08;;;;;;;0.00;0.00;;;3.60;87.90;;;;;;4985892;28;20054;-71
2023/03/02 00:55:35;;;;;;;1.65;1.55;;;3.60;87.90;;;;;;4970833;28;20046;-71
2023/03/02 00:58:02;;;;;;;0.10;0.10;;;3.50;87.90;;;;;;4970437;28;20178;-71
2023/03/02 01:00:28;;;;;;;0.10;0.10;;;3.60;87.70;;;;;;4972444;28;20053;-72
2023/03/02 01:02:54;;;;;;;0.00;0.00;;;3.40;87.80;;;;;;4976333;28;20047;-71
2023/03/02 01:05:20;;;;;;;0.25;0.25;;;3.50;87.70;;;;;;4990078;28;20052;-72
2023/03/02 01:07:46;;;;;;;0.00;0.00;;;3.40;87.80;;;;;;4989679;28;20411;-71
2023/03/02 01:10:12;;;;;;;0.00;0.00;;;3.40;87.60;;;;;;4992816;28;20052;-71
2023/03/02 01:12:38;;;;;;;0.10;0.10;;;3.20;87.80;;;;;;4977997;28;20118;-71
2023/03/02 01:15:08;;;;;;;0.10;0.10;;;3.10;87.90;;;;;;4970477;28;20563;-71
2023/03/02 01:17:34;;;;;;;0.10;0.10;;;3.20;88.00;;;;;;4976457;28;20061;-71
2023/03/02 01:20:00;;;;;;;0.00;0.00;;;3.10;88.20;;;;;;4989331;28;20042;-72
2023/03/02 01:22:25;;;;;;;0.00;0.00;;;3.10;88.60;;;;;;4989851;28;20132;-71
2023/03/02 01:24:52;;;;;;;1.20;0.73;;;3.10;88.70;;;;;;4988435;28;20101;-71
2023/03/02 01:27:18;;;;;;;0.10;0.10;;;3.10;88.70;;;;;;4983042;28;20066;-71
2023/03/02 01:29:44;;;;;;;0.30;0.30;;;3.10;88.70;;;;;;4981854;28;20121;-71
2023/03/02 01:32:10;;;;;;;0.20;0.20;;;3.10;88.60;;;;;;4981034;28;20176;-71
2023/03/02 01:34:35;;;;;;;0.10;0.10;;;3.20;88.60;;;;;;4977225;28;20049;-71
2023/03/02 01:37:01;;;;;;;0.00;0.00;;;3.20;88.60;;;;;;4988153;28;20046;-71
2023/03/02 01:39:27;;;;;;;0.00;0.00;;;3.20;88.40;;;;;;4989031;28;20046;-71
2023/03/02 01:41:53;;;;;;;0.15;0.15;;;3.20;88.40;;;;;;4988665;28;20128;-71
2023/03/02 01:44:33;;;;;;;0.55;0.55;;;3.10;88.60;;;;;;4989722;28;20069;-71
2023/03/02 01:46:59;;;;;;;0.03;0.03;;;3.10;88.60;;;;;;4989549;28;20140;-71
2023/03/02 01:49:25;;;;;;;0.10;0.10;;;3.10;88.70;;;;;;4978556;28;20050;-71
2023/03/02 01:51:52;;;;;;;0.20;0.20;;;3.10;88.80;;;;;;4984967;28;20204;-71
2023/03/02 01:54:24;;;;;;;0.10;0.10;;;3.00;88.80;;;;;;4979798;28;20062;-71
2023/03/02 01:56:57;;;;;;;0.00;0.00;;;3.00;89.00;;;;;;4989694;28;20054;-71
2023/03/02 01:59:25;;;;;;;1.40;0.60;;;3.00;88.80;;;;;;4999489;28;20415;-71
2023/03/02 02:01:54;;;;;;;0.35;0.35;;;3.10;88.80;;;;;;4987896;28;20141;-71
2023/03/02 02:04:21;;;;;;;0.95;0.95;;;3.10;88.70;;;;;;4988973;28;20054;-71
2023/03/02 02:06:54;;;;;;;0.00;0.00;;;3.10;88.80;;;;;;4985426;28;20504;-72
2023/03/02 02:09:22;;;;;;;0.00;0.00;;;3.00;88.70;;;;;;4986622;28;20125;-71
2023/03/02 02:11:48;;;;;;;0.03;0.03;;;3.00;88.90;;;;;;4971323;28;20055;-71
2023/03/02 02:14:14;;;;;;;0.00;0.00;;;3.00;89.00;;;;;;4973143;28;20042;-71
2023/03/02 02:16:40;;;;;;;0.00;0.00;;;3.00;89.10;;;;;;4973420;28;20059;-71
2023/03/02 02:19:18;;;;;;;0.00;0.00;;;3.10;89.10;;;;;;4974566;28;20547;-71
2023/03/02 02:21:44;;;;;;;0.10;0.10;;;3.10;89.10;;;;;;4988628;28;20081;-71
2023/03/02 02:24:29;;;;;;;0.00;0.00;;;3.10;89.10;;;;;;4991000;28;20077;-72
2023/03/02 02:26:56;;;;;;;0.00;0.00;;;3.10;88.90;;;;;;4995630;28;20046;-71
2023/03/02 02:29:38;;;;;;;0.17;0.17;;;3.10;88.70;;;;;;4973053;28;20411;-72
2023/03/02 02:32:20;;;;;;;0.10;0.10;;;3.10;88.80;;;;;;4975311;28;20118;-69
2023/03/02 02:34:46;;;;;;;;;;;3.00;89.00;;;;;;4974053;28;20087;-71
2023/03/02 02:37:26;;;;;;;0.38;0.38;;;3.00;89.10;;;;;;4977505;28;19929;-71
2023/03/02 02:39:52;;;;;;;0.00;0.00;;;3.00;89.10;;;;;;4988301;28;20038;-71
2023/03/02 02:42:24;;;;;;;0.20;0.20;;;3.00;89.10;;;;;;4975648;28;20047;-71
2023/03/02 02:44:55;;;;;;;0.10;0.10;;;3.00;89.10;;;;;;4973054;28;20495;-71
2023/03/02 02:47:21;;;;;;;0.10;0.10;;;3.00;89.10;;;;;;4972111;28;20055;-71
2023/03/02 02:49:51;;;;;;;0.00;0.00;;;3.10;89.10;;;;;;4987518;28;20495;-71
2023/03/02 02:52:19;;;;;;;0.00;0.00;;;3.10;89.10;;;;;;4975875;28;20058;-71
2023/03/02 02:54:48;;;;;;;0.00;0.00;;;3.20;89.10;;;;;;4972028;28;20085;-71
2023/03/02 02:57:16;;;;;;;0.00;0.00;;;3.20;88.90;;;;;;4973161;28;20054;-71
2023/03/02 02:59:46;;;;;;;0.00;0.00;;;3.10;88.80;;;;;;4988896;28;20475;-72
2023/03/02 03:02:36;;;;;;;0.10;0.10;;;3.20;88.70;;;;;;4989156;28;20042;-71
2023/03/02 03:05:02;;;;;;;0.00;0.00;;;3.10;88.70;;;;;;4991839;28;20095;-71
2023/03/02 03:07:31;;;;;;;0.00;0.00;;;3.10;88.80;;;;;;4990966;28;20046;-72
2023/03/02 03:10:33;;;;;;;0.00;0.00;;;3.10;88.80;;;;;;4977191;28;20523;-71
2023/03/02 03:13:00;;;;;;;0.00;0.00;;;3.10;88.70;;;;;;4972345;28;20057;-71
2023/03/02 03:15:25;;;;;;;0.00;0.00;;;3.10;88.50;;;;;;4983501;28;20078;-71
2023/03/02 03:17:55;;;;;;;0.05;0.05;;;3.20;88.40;;;;;;4990578;28;20092;-71
2023/03/02 03:20:22;;;;;;;0.20;0.20;;;3.10;88.30;;;;;;4984647;28;20038;-71
2023/03/02 03:22:48;;;;;;;0.00;0.00;;;3.00;88.40;;;;;;4987674;28;20042;-71
2023/03/02 03:25:14;;;;;;;0.00;0.00;;;3.00;88.40;;;;;;4984220;28;20050;-71
2023/03/02 03:27:41;;;;;;;0.00;0.00;;;3.00;88.40;;;;;;4983975;28;20056;-71
2023/03/02 03:30:09;;;;;;;0.00;0.00;;;2.90;88.60;;;;;;4982094;28;20039;-71
2023/03/02 03:32:35;;;;;;;0.03;0.03;;;2.90;88.50;;;;;;4978919;28;20047;-72
2023/03/02 03:35:02;;;;;;;0.10;0.10;;;2.90;88.60;;;;;;4981903;28;20047;-71
2023/03/02 03:37:28;;;;;;;0.10;0.10;;;2.90;88.70;;;;;;4980985;28;20153;-72
2023/03/02 03:39:54;;;;;;;0.00;0.00;;;2.90;88.60;;;;;;4974721;28;20113;-72
2023/03/02 03:42:20;;;;;;;0.00;0.00;;;3.00;88.60;;;;;;4979269;28;20158;-71
2023/03/02 03:44:45;;;;;;;0.00;0.00;;;2.90;88.60;;;;;;4983699;28;20064;-72
2023/03/02 03:47:11;;;;;;;0.10;0.10;;;3.00;88.50;;;;;;4983761;28;20153;-71
2023/03/02 03:49:37;;;;;;;0.10;0.10;;;2.90;88.40;;;;;;4984040;28;20050;-71
2023/03/02 03:52:03;;;;;;;0.00;0.00;;;2.90;88.40;;;;;;4990276;28;20140;-71
2023/03/02 03:54:28;;;;;;;0.10;0.10;;;2.90;88.60;;;;;;4998802;28;20053;-72
2023/03/02 03:56:54;;;;;;;0.52;0.52;;;2.90;88.70;;;;;;5010375;28;20049;-72
2023/03/02 03:59:22;;;;;;;0.03;0.03;;;2.90;88.70;;;;;;4994988;28;20050;-71
2023/03/02 04:01:57;;;;;;;0.10;0.10;;;2.90;88.70;;;;;;5006063;28;20065;-71
2023/03/02 04:04:27;;;;;;;0.00;0.00;;;2.90;88.70;;;;;;4991137;28;20110;-72
2023/03/02 04:06:53;;;;;;;0.10;0.10;;;2.90;88.50;;;;;;5003202;28;20125;-71
2023/03/02 04:09:19;;;;;;;0.50;0.50;;;2.90;88.70;;;;;;4981962;28;20079;-72
2023/03/02 04:11:47;;;;;;;0.28;0.28;;;2.90;88.70;;;;;;4979275;28;20078;-72
2023/03/02 04:14:13;;;;;;;0.00;0.00;;;2.70;88.50;;;;;;4982949;28;20050;-71
2023/03/02 04:16:41;;;;;;;0.00;0.00;;;2.70;88.70;;;;;;4979825;28;20403;-72
2023/03/02 04:19:08;;;;;;;0.10;0.10;;;2.70;88.60;;;;;;4981322;28;20125;-72
2023/03/02 04:21:43;;;;;;;0.00;0.00;;;2.70;88.80;;;;;;4979315;28;20055;-71
2023/03/02 04:24:10;;;;;;;0.10;0.10;;;2.60;88.80;;;;;;4975579;28;20404;-71
2023/03/02 04:26:37;;;;;;;0.05;0.05;;;2.60;89.00;;;;;;4976042;28;20460;-71
2023/03/02 04:29:03;;;;;;;0.00;0.00;;;2.50;89.20;;;;;;4978338;28;20047;-71
2023/03/02 04:31:30;;;;;;;0.10;0.10;;;2.50;89.20;;;;;;4981464;28;20396;-71
2023/03/02 04:33:56;;;;;;;0.20;0.20;;;2.40;89.40;;;;;;4977365;28;20053;-72
2023/03/02 04:36:21;;;;;;;0.10;0.10;;;2.50;89.50;;;;;;4976542;28;20039;-71
2023/03/02 04:38:47;;;;;;;0.00;0.00;;;2.40;89.40;;;;;;4974769;28;20039;-71
2023/03/02 04:41:13;;;;;;;0.00;0.00;;;2.50;89.50;;;;;;4978560;28;20133;-71
2023/03/02 04:43:39;;;;;;;1.25;0.80;;;2.50;89.60;;;;;;4982845;28;20579;-71
2023/03/02 04:46:05;;;;;;;0.00;0.00;;;2.50;89.50;;;;;;4979016;28;20129;-72
2023/03/02 04:48:30;;;;;;;0.10;0.10;;;2.60;89.60;;;;;;4980975;28;20066;-71
2023/03/02 04:50:56;;;;;;;0.00;0.00;;;2.60;89.70;;;;;;4975050;28;20050;-71
2023/03/02 04:53:22;;;;;;;0.30;0.30;;;2.50;89.60;;;;;;4977587;28;20492;-71
2023/03/02 04:55:47;;;;;;;0.10;0.10;;;2.60;89.50;;;;;;4987051;28;20098;-71
2023/03/02 04:58:13;;;;;;;0.00;0.00;;;2.60;89.50;;;;;;4981535;28;20053;-71
2023/03/02 05:00:39;;;;;;;0.00;0.00;;;2.50;89.50;;;;;;4978741;28;20623;-71
2023/03/02 05:03:05;;;;;;;0.00;0.00;;;2.60;89.60;;;;;;4976107;28;20668;-72
2023/03/02 05:05:32;;;;;;;0.00;0.00;;;2.40;89.50;;;;;;4978314;28;20053;-72
2023/03/02 05:07:58;;;;;;;0.00;0.00;;;2.40;89.70;;;;;;4973886;28;20089;-71
2023/03/02 05:10:25;;;;;;;0.03;0.03;;;2.50;89.40;;;;;;4978050;28;20046;-71
2023/03/02 05:13:01;;;;;;;0.38;0.38;;;2.30;89.80;;;;;;4978613;28;20046;-71
2023/03/02 05:15:36;;;;;;;0.20;0.20;;;2.30;89.70;;;;;;4978164;28;20047;-71
2023/03/02 05:18:05;;;;;;;6.55;1.98;;;2.30;89.80;;;;;;4979454;28;20046;-71
2023/03/02 05:20:30;;;;;;;1.65;0.73;;;2.30;90.00;;;;;;4984965;28;20042;-71
2023/03/02 05:23:03;;;;;;;0.00;0.00;;;2.30;90.20;;;;;;4982776;28;20491;-71
2023/03/02 05:25:31;;;;;;;0.00;0.00;;;2.40;90.30;;;;;;4981327;28;20072;-71
2023/03/02 05:27:57;;;;;;;0.10;0.10;;;2.40;90.30;;;;;;4978898;28;20129;-71
2023/03/02 05:30:24;;;;;;;0.10;0.10;;;2.40;90.40;;;;;;4999356;28;20053;-71
2023/03/02 05:32:51;;;;;;;0.10;0.10;;;2.50;90.20;;;;;;4981167;28;20066;-71
2023/03/02 05:35:17;;;;;;;0.13;0.13;;;2.40;90.30;;;;;;4982364;28;20100;-71
2023/03/02 05:37:43;;;;;;;0.10;0.10;;;2.40;90.20;;;;;;4978765;28;20051;-71
2023/03/02 05:40:15;;;;;;;1.13;1.02;;;2.40;90.20;;;;;;4978719;28;20057;-71
2023/03/02 05:42:41;;;;;;;0.75;0.75;;;2.40;90.40;;;;;;4980508;28;20050;-71
2023/03/02 05:45:15;;;;;;;0.10;0.10;;;2.40;90.30;;;;;;4975472;28;20185;-72
2023/03/02 05:47:41;;;;;;;0.00;0.00;;;2.40;90.50;;;;;;4967974;28;20080;-72
2023/03/02 05:50:07;;;;;;;0.15;0.15;;;2.40;90.40;;;;;;4981018;28;20660;-72
2023/03/02 05:52:32;;;;;;;0.55;0.55;;;2.30;90.40;;;;;;4983309;28;20039;-72
2023/03/02 05:54:58;;;;;;;0.20;0.20;;;2.20;90.30;;;;;;4985729;28;20100;-72
2023/03/02 05:57:24;;;;;;;0.32;0.32;;;2.30;90.10;;;;;;4980631;28;20091;-71
2023/03/02 05:59:50;;;;;;;0.00;0.00;;;2.10;90.20;;;;;;4997587;28;20133;-72
2023/03/02 06:02:16;;;;;;;0.10;0.10;;;2.20;90.10;;;;;;4988932;28;20046;-72
2023/03/02 06:04:43;;;;;;;0.10;0.10;;;2.10;90.40;;;;;;4983771;28;20080;-71
2023/03/02 06:07:12;;;;;;;0.20;0.20;;;2.10;90.50;;;;;;4984220;28;20384;-71
2023/03/02 06:09:38;;;;;;;1.38;1.35;;;2.10;90.60;;;;;;4979247;28;20532;-72
2023/03/02 06:12:05;;;;;;;0.10;0.10;;;2.10;90.50;;;;;;4980652;28;20085;-71
2023/03/02 06:14:31;;;;;;;0.10;0.10;;;2.10;90.70;;;;;;4984296;28;20042;-72
2023/03/02 06:16:57;;;;;;;0.10;0.10;;;2.10;90.80;;;;;;5001616;28;20043;-72
2023/03/02 06:19:23;;;;;;;0.00;0.00;;;2.10;90.70;;;;;;4981155;28;20089;-72
2023/03/02 06:21:48;;;;;;;2.22;1.30;;;2.00;91.00;;;;;;4982904;28;20038;-72
2023/03/02 06:24:14;;;;;;;0.10;0.10;;;2.10;91.00;;;;;;4984207;28;20108;-72
2023/03/02 06:26:39;;;;;;;2.47;0.45;;;2.10;91.00;;;;;;4980504;28;20059;-72
2023/03/02 06:29:06;;;;;;;0.10;0.10;;;2.10;91.00;;;;;;4986398;28;20045;-72
2023/03/02 06:31:32;;;;;;;0.10;0.10;;;2.10;91.00;;;;;;4981176;28;20133;-72
2023/03/02 06:33:58;;;;;;;0.08;0.08;;;2.10;91.00;;;;;;4980679;28;20042;-72
2023/03/02 06:36:24;;;;;;;0.60;0.55;;;2.10;91.00;;;;;;4981896;28;20046;-72
2023/03/02 06:38:49;;;;;;;0.10;0.10;;;2.10;91.00;;;;;;4986085;28;20046;-72
2023/03/02 06:41:15;;;;;;;0.35;0.35;;;2.20;91.20;;;;;;4984020;28;20054;-72
2023/03/02 06:43:41;;;;;;;0.30;0.30;;;2.10;91.10;;;;;;4981765;28;20050;-72
2023/03/02 06:46:06;;;;;;;0.00;0.00;;;2.10;91.00;;;;;;4982917;28;20475;-72
2023/03/02 06:48:32;;;;;;;0.52;0.52;;;2.10;91.10;;;;;;4983439;28;20508;-71
2023/03/02 06:50:58;;;;;;;0.00;0.00;;;2.20;91.10;;;;;;4982039;28;20129;-72
2023/03/02 06:53:23;;;;;;;0.20;0.20;;;2.10;91.20;;;;;;4981689;28;20048;-72
2023/03/02 06:55:49;;;;;;;0.28;0.28;;;2.10;91.40;;;;;;4980591;28;20500;-72
2023/03/02 06:58:15;;;;;;;0.10;0.10;;;2.10;91.40;;;;;;4981480;28;20178;-72
2023/03/02 07:00:41;;;;;;;0.03;0.03;;;2.00;91.50;;;;;;4977733;28;20133;-72
2023/03/02 07:03:06;;;;;;;0.30;0.30;;;2.00;91.70;;;;;;4984170;28;20057;-72
2023/03/02 07:05:32;;;;;;;0.70;0.70;;;2.00;91.80;;;;;;4980333;28;20043;-72
2023/03/02 07:07:58;;;;;;;1.45;0.88;;;2.10;91.70;;;;;;4979352;28;20049;-72
2023/03/02 07:10:25;;;;;;;0.00;0.00;;;2.10;91.80;;;;;;4977233;28;20428;-72
2023/03/02 07:12:51;;;;;;;0.00;0.00;;;2.10;91.90;;;;;;4972719;28;20415;-72
2023/03/02 07:15:17;;;;;;;0.10;0.10;;;2.00;91.90;;;;;;4985556;28;20056;-72
2023/03/02 07:17:43;;;;;;;0.30;0.30;;;2.10;92.00;;;;;;4986006;28;20047;-71
2023/03/02 07:20:14;;;;;;;0.63;0.63;;;2.10;92.00;;;;;;4979396;28;20054;-72
2023/03/02 07:22:40;;;;;;;0.65;0.65;;;2.10;91.90;;;;;;4983654;28;20057;-71
2023/03/02 07:25:06;;;;;;;0.00;0.00;;;2.10;91.90;;;;;;4976343;28;20046;-72
2023/03/02 07:27:32;;;;;;;0.10;0.10;;;2.20;91.90;;;;;;4982253;28;20034;-71
2023/03/02 07:29:58;;;;;;;0.43;0.43;;;2.20;92.00;;;;;;4980358;28;20041;-73
2023/03/02 07:32:24;;;;;;;0.43;0.43;;;2.20;91.90;;;;;;4986429;28;20057;-73
2023/03/02 07:34:49;;;;;;;5.28;2.20;;;2.30;91.80;;;;;;4993190;28;20091;-73
2023/03/02 07:37:15;;;;;;;0.10;0.10;;;2.40;91.60;;;;;;4991064;28;20220;-71
2023/03/02 07:39:40;;;;;;;0.10;0.10;;;2.50;92.30;;;;;;4998626;28;20084;-70
2023/03/02 07:42:07;;;;;;;0.00;0.00;;;2.80;92.10;;;;;;4976769;28;20093;-73
2023/03/02 07:44:33;;;;;;;1.00;1.00;;;2.90;91.80;;;;;;4996065;28;20054;-72
2023/03/02 07:46:59;;;;;;;0.03;0.03;;;2.70;91.20;;;;;;4992666;28;20046;-73
2023/03/02 07:49:25;;;;;;;0.00;0.00;;;2.60;91.20;;;;;;4989509;28;20456;-70
2023/03/02 07:51:51;;;;;;;1.05;1.02;;;2.50;91.30;;;;;;4992851;28;20075;-70
2023/03/02 07:54:17;;;;;;;0.35;0.35;;;2.60;91.40;;;;;;4996431;28;20053;-72
2023/03/02 07:56:42;;;;;;;1.23;1.13;;;2.60;91.40;;;;;;4993935;28;20507;-71
2023/03/02 07:59:09;;;;;;;0.10;0.10;;;2.60;91.30;;;;;;4995599;28;20038;-72
2023/03/02 08:01:35;;;;;;;0.00;0.00;;;2.70;91.40;;;;;;4998411;28;20419;-71
2023/03/02 08:04:01;;;;;;;0.00;0.00;;;2.70;91.40;;;;;;4997921;28;20049;-71
2023/03/02 08:06:26;;;;;;;0.05;0.05;;;2.70;91.40;;;;;;4995312;28;20053;-72
2023/03/02 08:08:52;;;;;;;0.00;0.00;;;2.80;91.00;;;;;;4986278;28;20049;-71
2023/03/02 08:11:18;;;;;;;1.30;1.20;;;2.70;90.70;;;;;;4993468;28;20097;-71
2023/03/02 08:13:44;;;;;;;8.48;1.55;;;2.70;90.80;;;;;;4986686;28;20046;-70
2023/03/02 08:16:12;;;;;;;0.10;0.10;;;2.60;90.80;;;;;;4989378;28;20058;-71
2023/03/02 08:18:38;;;;;;;0.20;0.20;;;2.50;90.90;;;;;;4994940;28;20061;-71
2023/03/02 08:21:10;;;;;;;0.43;0.43;;;2.50;91.00;;;;;;5008295;28;20050;-71
2023/03/02 08:23:35;;;;;;;0.10;0.10;;;2.60;91.00;;;;;;4993914;28;20037;-71
2023/03/02 08:26:01;;;;;;;0.10;0.10;;;2.60;91.00;;;;;;4989683;28;20139;-71
2023/03/02 08:28:26;;;;;;;0.75;0.75;;;2.60;91.10;;;;;;4972104;28;20038;-71
2023/03/02 08:30:57;;;;;;;0.00;0.00;;;2.60;91.10;;;;;;4977861;28;20454;-71
2023/03/02 08:33:23;;;;;;;0.90;0.90;;;2.70;91.10;;;;;;4991116;28;20126;-71
2023/03/02 08:36:00;;;;;;;0.03;0.03;;;2.70;91.10;;;;;;4992586;28;20132;-71
2023/03/02 08:38:27;;;;;;;0.10;0.10;;;2.80;91.10;;;;;;4991898;28;20096;-71
2023/03/02 08:40:53;;;;;;;0.20;0.20;;;2.80;91.10;;;;;;4991775;28;20061;-71
2023/03/02 08:43:20;;;;;;;0.50;0.50;;;2.80;91.10;;;;;;4986641;28;20057;-71
2023/03/02 08:45:50;;;;;;;0.00;0.00;;;2.90;91.00;;;;;;4994179;28;20049;-70
2023/03/02 08:48:16;;;;;;;0.03;0.03;;;2.80;91.10;;;;;;4988744;28;20050;-71
2023/03/02 08:50:42;;;;;;;0.00;0.00;;;2.80;91.10;;;;;;4991409;28;20053;-71
2023/03/02 08:53:07;;;;;;;0.00;0.00;;;2.80;90.80;;;;;;4991938;28;20118;-70
2023/03/02 08:55:36;;;;;;;1.05;0.95;;;2.80;90.70;;;;;;4996145;28;20038;-68
2023/03/02 08:58:03;;;;;;;0.00;0.00;;;2.70;90.90;;;;;;4989097;28;20057;-71
2023/03/02 09:00:29;;;;;;;0.00;0.00;;;2.70;90.80;;;;;;4990926;28;20042;-72
2023/03/02 09:02:54;;;;;;;0.00;0.00;;;2.70;91.00;;;;;;4992474;28;20506;-71
2023/03/02 09:05:20;;;;;;;0.30;0.30;;;2.70;91.00;;;;;;4993683;28;20052;-72
2023/03/02 09:07:45;;;;;;;0.00;0.00;;;2.70;91.10;;;;;;4986403;28;20078;-71
2023/03/02 09:10:11;;;;;;;0.00;0.00;;;2.70;91.10;;;;;;4988441;28;20108;-71
2023/03/02 09:12:36;;;;;;;0.05;0.05;;;2.90;91.20;;;;;;4991623;28;20411;-72
2023/03/02 09:15:02;;;;;;;0.00;0.00;;;3.00;91.30;;;;;;4994565;28;20046;-73
2023/03/02 09:17:28;;;;;;;0.00;0.00;;;3.10;91.30;;;;;;4984828;28;20054;-73
2023/03/02 09:19:53;;;;;;;0.00;0.00;;;3.10;91.20;;;;;;4991058;28;20151;-71
2023/03/02 09:22:19;;;;;;;0.68;0.68;;;3.20;91.00;;;;;;4991897;28;20056;-71
2023/03/02 09:24:45;;;;;;;0.65;0.65;;;3.20;90.80;;;;;;4988937;28;20619;-72
2023/03/02 09:27:11;;;;;;;0.00;0.00;;;3.20;90.80;;;;;;4994546;28;21386;-72
2023/03/02 09:29:36;;;;;;;0.00;0.00;;;3.20;90.80;;;;;;4992000;28;20083;-70
2023/03/02 09:32:02;;;;;;;0.38;0.38;;;3.20;90.70;;;;;;4992285;28;20376;-71
2023/03/02 09:34:28;;;;;;;0.05;0.05;;;3.20;90.60;;;;;;4977636;28;20042;-64
2023/03/02 09:36:53;;;;;;;0.10;0.10;;;3.30;90.60;;;;;;4991965;28;20045;-71
2023/03/02 09:39:19;;;;;;;0.00;0.00;;;3.30;90.60;;;;;;4993220;28;20046;-68
2023/03/02 09:42:13;;;;;;;0.10;0.10;;;3.60;90.90;;;;;;4996930;28;20125;-69
2023/03/02 09:45:13;;;;;;;1.98;1.42;;;3.70;90.40;;;;;;4995850;28;20103;-68
2023/03/02 09:48:00;;;;;;;0.03;0.03;;;3.70;89.80;;;;;;4996600;28;20038;-69
2023/03/02 09:50:32;;;;;;;0.00;0.00;;;3.80;89.40;;;;;;4994297;28;20402;-69
2023/03/02 09:53:04;;;;;;;0.15;0.15;;;3.60;89.40;;;;;;4997558;28;20113;-70
2023/03/02 09:55:34;;;;;;;1.13;0.95;;;3.80;88.60;;;;;;4996581;28;20125;-69
2023/03/02 09:58:04;;;;;;;0.00;0.00;;;3.70;88.60;;;;;;4994333;28;20043;-69
2023/03/02 10:00:39;;;;;;;0.00;0.00;;;3.60;88.60;;;;;;4996175;28;20050;-68
2023/03/02 10:03:15;;;;;;;0.00;0.00;;;3.70;88.70;;;;;;4974732;28;20049;-68
2023/03/02 10:05:44;;;;;;;0.55;0.55;;;3.70;88.60;;;;;;4994179;28;20168;-66
2023/03/02 10:08:32;;;;;;;0.05;0.05;;;3.70;88.60;;;;;;4993444;28;20503;-66
2023/03/02 10:11:14;;;;;;;0.10;0.10;;;5.30;93.40;;;;;;4996219;28;20629;-65
2023/03/02 10:13:45;;;;;;;;;;;5.50;90.60;;;;;;4992508;28;20037;-65
2023/03/02 10:16:51;;;;;;;0.20;0.20;;;5.30;89.40;;;;;;4994754;28;20016;-65
2023/03/02 10:19:40;;;;;;;1.20;1.10;;;5.20;89.20;;;;;;4995603;28;20093;-65
2023/03/02 10:22:15;;;;;;;0.10;0.10;;;5.00;88.60;;;;;;4991965;28;20049;-66
2023/03/02 10:24:47;;;;;;;0.00;0.00;;;5.00;88.30;;;;;;4991802;28;20048;-66
2023/03/02 10:27:17;;;;;;;0.00;0.00;;;4.90;88.20;;;;;;4995854;28;20870;-66
2023/03/02 10:30:06;;;;;;;0.00;0.00;;;4.70;87.50;;;;;;4995814;28;20035;-66
2023/03/02 10:32:37;;;;;;;1.10;1.10;;;4.80;87.60;;;;;;4992879;28;20074;-66
2023/03/02 10:35:20;;;;;;;0.17;0.17;;;4.80;87.50;;;;;;4997268;28;20049;-66
2023/03/02 10:37:46;;;;;;;0.57;0.57;;;4.80;87.30;;;;;;4999123;28;20042;-65
2023/03/02 10:40:39;;;;;;;0.10;0.10;;;4.80;87.40;;;;;;4998353;28;20663;-66
2023/03/02 10:43:12;;;;;;;0.10;0.10;;;4.70;87.20;;;;;;4998014;28;20047;-66
2023/03/02 10:45:38;;;;;;;0.00;0.00;;;4.70;87.10;;;;;;5015052;28;20085;-66
2023/03/02 10:48:09;;;;;;;1.10;1.10;;;4.60;86.70;;;;;;4992523;28;20043;-66
2023/03/02 10:50:35;;;;;;;0.20;0.20;;;4.60;86.90;;;;;;4981226;28;20178;-66
2023/03/02 10:53:01;;;;;;;0.10;0.10;;;4.50;86.90;;;;;;4985009;28;20088;-66
2023/03/02 10:55:28;;;;;;;3.33;1.73;;;4.50;86.90;;;;;;4993453;28;20519;-66
2023/03/02 10:58:18;;;;;;;0.35;0.35;;;4.40;86.90;;;;;;5007236;28;20053;-66
2023/03/02 11:00:55;;;;;;;0.00;0.00;;;4.40;86.90;;;;;;4989026;28;20059;-66
2023/03/02 11:03:22;;;;;;;0.10;0.10;;;4.40;87.20;;;;;;4994003;28;20046;-65
2023/03/02 11:05:48;;;;;;;0.13;0.13;;;4.40;87.30;;;;;;4975637;28;20069;-66
2023/03/02 11:08:22;;;;;;;0.40;0.40;;;4.40;87.10;;;;;;4982582;28;20512;-67
2023/03/02 11:11:00;;;;;;;0.38;0.38;;;4.40;87.30;;;;;;4973725;28;20623;-67
2023/03/02 11:13:37;;;;;;;0.32;0.30;;;4.50;87.30;;;;;;4978772;28;20116;-66
2023/03/02 11:16:32;;;;;;;0.10;0.10;;;4.60;87.40;;;;;;4981222;28;20416;-65
2023/03/02 11:19:02;;;;;;;0.10;0.10;;;4.70;87.40;;;;;;4976885;28;20061;-66
2023/03/02 11:21:36;;;;;;;0.03;0.03;;;4.80;87.30;;;;;;4990458;28;20042;-66
2023/03/02 11:24:14;;;;;;;0.10;0.10;;;4.90;87.10;;;;;;4990189;28;20046;-66
2023/03/02 11:26:58;;;;;;;0.00;0.00;;;5.00;86.80;;;;;;4990201;28;20086;-66
2023/03/02 11:29:57;;;;;;;0.50;0.50;;;5.10;86.80;;;;;;4990517;28;20069;-66
2023/03/02 11:32:41;;;;;;;0.00;0.00;;;5.20;86.70;;;;;;4947709;28;20392;-64
2023/03/02 11:35:20;;;;;;;2.38;0.75;;;5.30;86.30;;;;;;4972641;28;20047;-64
2023/03/02 11:37:53;;;;;;;0.00;0.00;;;5.30;85.80;;;;;;4971663;28;20042;-64
2023/03/02 11:40:44;;;;;;;0.20;0.20;;;5.40;85.20;;;;;;4989802;28;20684;-65
2023/03/02 11:43:11;;;;;;;0.08;0.08;;;5.50;84.70;;;;;;4991809;28;20050;-65
2023/03/02 11:45:50;;;;;;;0.10;0.10;;;5.60;84.80;;;;;;4990817;28;20090;-65
2023/03/02 11:48:26;;;;;;;0.10;0.10;;;5.60;84.50;;;;;;4991286;28;20046;-65
2023/03/02 11:51:10;;;;;;;0.38;0.38;;;5.70;84.50;;;;;;4985618;28;20101;-65
2023/03/02 11:54:01;;;;;;;0.40;0.40;;;5.70;84.60;;;;;;4975389;28;20050;-65
2023/03/02 11:56:33;;;;;;;0.10;0.10;;;5.80;84.20;;;;;;4972570;28;20432;-65
2023/03/02 11:59:01;;;;;;;;;;;5.90;83.80;;;;;;4972227;28;20042;-65
2023/03/02 12:01:28;;;;;;;0.90;0.90;;;5.90;83.80;;;;;;4971448;28;19929;-65
2023/03/02 12:04:06;;;;;;;0.20;0.20;;;6.00;83.50;;;;;;4990016;28;20111;-65
2023/03/02 12:06:38;;;;;;;0.03;0.03;;;6.00;83.00;;;;;;4991610;28;20046;-65
2023/03/02 12:09:10;;;;;;;0.03;0.03;;;6.10;82.60;;;;;;4991475;28;20454;-65
2023/03/02 12:11:39;;;;;;;0.10;0.10;;;6.20;82.90;;;;;;4975892;28;20039;-65
2023/03/02 12:14:37;;;;;;;5.82;1.30;;;6.30;82.60;;;;;;4984315;28;20047;-65
2023/03/02 12:17:23;;;;;;;0.10;0.10;;;6.40;82.30;;;;;;4979887;28;20058;-65
2023/03/02 12:19:52;;;;;;;0.10;0.10;;;6.50;81.80;;;;;;4961043;28;20055;-65
2023/03/02 12:22:29;;;;;;;1.88;1.77;;;6.50;81.10;;;;;;4989426;28;20050;-66
2023/03/02 12:25:17;;;;;;;0.10;0.10;;;6.60;80.20;;;;;;4985919;28;20104;-67
2023/03/02 12:27:44;;;;;;;0.40;0.20;;;6.60;80.00;;;;;;4988782;28;20054;-67
2023/03/02 12:30:22;;;;;;;0.00;0.00;;;6.60;80.20;;;;;;4991154;28;20057;-67
2023/03/02 12:33:12;;;;;;;0.10;0.10;;;6.70;80.50;;;;;;4991389;28;20053;-67
2023/03/02 12:35:38;;;;;;;0.00;0.00;;;6.90;80.90;;;;;;4990278;28;20079;-67
2023/03/02 12:38:44;;;;;;;0.10;0.10;;;6.90;80.90;;;;;;4990964;28;20070;-67
2023/03/02 12:41:19;;;;;;;0.30;0.30;;;7.10;80.80;;;;;;4989095;28;20061;-67
2023/03/02 12:44:05;;;;;;;0.17;0.17;;;7.20;80.90;;;;;;4990398;28;20450;-67
2023/03/02 12:46:36;;;;;;;0.20;0.20;;;7.30;80.80;;;;;;4990604;28;20133;-66
2023/03/02 12:49:12;;;;;;;1.75;1.08;;;7.40;80.60;;;;;;4989289;28;20086;-67
2023/03/02 12:52:13;;;;;;;0.00;0.00;;;7.50;80.10;;;;;;4990336;28;20038;-67
2023/03/02 12:54:39;;;;;;;0.00;0.00;;;7.60;79.90;;;;;;4984763;28;20062;-67
2023/03/02 12:57:17;;;;;;;0.00;0.00;;;7.60;80.30;;;;;;4990687;28;20117;-66
2023/03/02 12:59:49;;;;;;;0.73;0.73;;;7.80;80.20;;;;;;4990331;28;20047;-67
2023/03/02 13:02:27;;;;;;;0.10;0.10;;;8.10;78.30;;;;;;4989879;28;20046;-67
2023/03/02 13:04:54;;;;;;;1.27;0.90;;;8.10;77.60;;;;;;4990522;28;20046;-67
2023/03/02 13:07:43;;;;;;;0.10;0.10;;;8.00;77.30;;;;;;4990937;28;20038;-67
2023/03/02 13:10:29;;;;;;;0.15;0.15;;;8.00;77.70;;;;;;4990110;28;20065;-67
2023/03/02 13:12:56;;;;;;;0.10;0.10;;;8.00;76.90;;;;;;4989774;28;20057;-67